Time;durP1;ratioP1;P1;durP2;ratioP2;P2;SDS_P1;SDS_P2;PMS_P1;PMS_P2;Temp;Humidity;BMP_temperature;BMP_pressure;BME280_temperature;BME280_humidity;BME280_pressure;Samples;Min_cycle;Max_cycle;Signal;HPM_P1;HPM_P2
2023/07/20 00:01:46;;;;;;;5.50;4.18;;;17.40;99.90;;;;;;5053592;28;20025;-69
2023/07/20 00:04:13;;;;;;;8.45;4.47;;;17.40;99.90;;;;;;5053452;28;20028;-69
2023/07/20 00:06:40;;;;;;;8.23;5.07;;;17.30;99.90;;;;;;5053578;28;20481;-69
2023/07/20 00:09:08;;;;;;;7.32;4.45;;;17.30;99.90;;;;;;5053473;28;20029;-68
2023/07/20 00:11:39;;;;;;;9.57;5.03;;;17.20;99.90;;;;;;5053550;28;20381;-68
2023/07/20 00:14:05;;;;;;;;;;;17.10;99.90;;;;;;5053896;28;20040;-68
2023/07/20 00:16:31;;;;;;;8.40;5.38;;;17.10;99.90;;;;;;5053283;28;19963;-68
2023/07/20 00:18:57;;;;;;;9.57;5.03;;;17.00;99.90;;;;;;5053552;28;20025;-68
2023/07/20 00:21:23;;;;;;;7.10;4.35;;;17.00;99.90;;;;;;5053151;28;20040;-68
2023/07/20 00:23:48;;;;;;;9.70;5.20;;;17.00;99.90;;;;;;5053189;28;20036;-68
2023/07/20 00:26:14;;;;;;;8.23;4.60;;;17.10;99.90;;;;;;5053241;28;20430;-68
2023/07/20 00:28:39;;;;;;;8.57;4.68;;;17.10;99.90;;;;;;5053191;28;20489;-68
2023/07/20 00:31:05;;;;;;;9.20;4.90;;;17.10;99.90;;;;;;5053239;28;20056;-68
2023/07/20 00:33:31;;;;;;;7.32;4.72;;;17.20;99.90;;;;;;5053163;28;20371;-68
2023/07/20 00:35:56;;;;;;;6.22;3.88;;;17.20;99.90;;;;;;5053065;28;20056;-68
2023/07/20 00:38:22;;;;;;;8.18;4.70;;;17.20;99.90;;;;;;5053196;28;20408;-68
2023/07/20 00:40:49;;;;;;;11.70;4.70;;;17.30;99.90;;;;;;5051321;28;20036;-68
2023/07/20 00:43:15;;;;;;;8.60;4.47;;;17.30;99.90;;;;;;5052926;28;20047;-68
2023/07/20 00:45:42;;;;;;;6.72;4.88;;;17.30;99.90;;;;;;5053018;28;20049;-68
2023/07/20 00:48:08;;;;;;;6.70;4.55;;;17.30;99.90;;;;;;5052954;28;20053;-68
2023/07/20 00:50:34;;;;;;;6.30;4.07;;;17.20;99.90;;;;;;5052983;28;20032;-68
2023/07/20 00:53:03;;;;;;;8.00;5.03;;;17.10;99.90;;;;;;5053221;28;20029;-68
2023/07/20 00:55:32;;;;;;;7.30;4.18;;;17.00;99.90;;;;;;5053447;28;20040;-68
2023/07/20 00:57:59;;;;;;;7.43;4.93;;;17.00;99.90;;;;;;5052894;28;20025;-68
2023/07/20 01:00:24;;;;;;;6.15;4.10;;;16.90;99.90;;;;;;5056674;28;20069;-68
2023/07/20 01:02:51;;;;;;;7.32;4.20;;;16.90;99.90;;;;;;5057216;28;20036;-68
2023/07/20 01:05:17;;;;;;;7.03;4.32;;;16.90;99.90;;;;;;5045295;28;20057;-68
2023/07/20 01:07:49;;;;;;;7.93;4.22;;;17.00;99.90;;;;;;5042646;28;20087;-68
2023/07/20 01:10:29;;;;;;;6.45;4.13;;;17.00;99.90;;;;;;5036963;28;20485;-68
2023/07/20 01:12:55;;;;;;;6.10;4.40;;;16.90;99.90;;;;;;5040899;28;20474;-68
2023/07/20 01:15:21;;;;;;;6.47;4.07;;;16.90;99.90;;;;;;5042195;28;20367;-69
2023/07/20 01:17:47;;;;;;;5.82;3.95;;;16.90;99.90;;;;;;5039165;28;20025;-68
2023/07/20 01:20:17;;;;;;;7.82;5.22;;;16.90;99.90;;;;;;5037995;28;20036;-68
2023/07/20 01:22:55;;;;;;;8.02;4.93;;;16.90;99.90;;;;;;5055658;28;20106;-68
2023/07/20 01:26:00;;;;;;;8.93;5.43;;;16.90;99.90;;;;;;5055752;28;20527;-68
2023/07/20 01:28:35;;;;;;;7.28;5.18;;;16.90;99.90;;;;;;5048402;28;20029;-68
2023/07/20 01:31:18;;;;;;;7.10;4.38;;;16.90;99.90;;;;;;5055678;28;20021;-68
2023/07/20 01:33:46;;;;;;;8.68;4.97;;;16.80;99.90;;;;;;5054463;28;20021;-68
2023/07/20 01:36:12;;;;;;;9.45;4.88;;;16.70;99.90;;;;;;5036257;28;20393;-68
2023/07/20 01:38:38;;;;;;;7.88;4.70;;;16.70;99.90;;;;;;5036303;28;20363;-68
2023/07/20 01:41:05;;;;;;;11.38;4.93;;;16.60;99.90;;;;;;5034675;28;20025;-68
2023/07/20 01:43:31;;;;;;;7.90;5.00;;;16.60;99.90;;;;;;5036659;28;20370;-68
2023/07/20 01:45:57;;;;;;;7.70;4.85;;;16.60;99.90;;;;;;5038265;28;20075;-68
2023/07/20 01:48:22;;;;;;;7.97;4.90;;;16.60;99.90;;;;;;5036065;28;20119;-68
2023/07/20 01:50:48;;;;;;;8.75;5.88;;;16.60;99.90;;;;;;5034821;28;20025;-68
2023/07/20 01:53:14;;;;;;;14.88;9.40;;;16.50;99.90;;;;;;5035951;28;20025;-68
2023/07/20 01:55:39;;;;;;;14.05;8.02;;;16.50;99.90;;;;;;5035979;28;20123;-68
2023/07/20 01:58:06;;;;;;;10.98;6.45;;;16.50;99.90;;;;;;5040644;28;20099;-68
2023/07/20 02:00:32;;;;;;;7.85;5.03;;;16.50;99.90;;;;;;5055568;28;20032;-68
2023/07/20 02:02:57;;;;;;;8.93;5.18;;;16.50;99.90;;;;;;5055673;28;20386;-68
2023/07/20 02:05:23;;;;;;;5.63;4.40;;;16.40;99.90;;;;;;5054449;28;20396;-69
2023/07/20 02:07:48;;;;;;;6.85;4.43;;;16.40;99.90;;;;;;5055633;28;20033;-68
2023/07/20 02:10:14;;;;;;;6.90;4.45;;;16.40;99.90;;;;;;5055243;28;20485;-69
2023/07/20 02:12:40;;;;;;;8.07;4.97;;;16.40;99.90;;;;;;5054122;28;20432;-69
2023/07/20 02:15:06;;;;;;;6.05;4.15;;;16.40;99.90;;;;;;5055446;28;20028;-69
2023/07/20 02:17:32;;;;;;;8.02;4.45;;;16.40;99.90;;;;;;5055169;28;20125;-69
2023/07/20 02:19:57;;;;;;;6.13;4.53;;;16.40;99.90;;;;;;5055361;28;20450;-69
2023/07/20 02:22:23;;;;;;;7.95;4.60;;;16.40;99.90;;;;;;5055190;28;20036;-69
2023/07/20 02:24:50;;;;;;;7.40;4.82;;;16.40;99.90;;;;;;5055217;28;20029;-69
2023/07/20 02:27:16;;;;;;;9.77;6.35;;;16.40;99.90;;;;;;5055534;28;20052;-69
2023/07/20 02:29:42;;;;;;;11.93;8.10;;;16.50;99.90;;;;;;5055107;28;20025;-69
2023/07/20 02:32:09;;;;;;;12.15;7.53;;;16.50;99.90;;;;;;5055048;28;20051;-68
2023/07/20 02:34:35;;;;;;;14.07;9.15;;;16.50;99.90;;;;;;5055038;28;20112;-68
2023/07/20 02:37:01;;;;;;;10.30;6.93;;;16.50;99.90;;;;;;5054892;28;20458;-68
2023/07/20 02:39:30;;;;;;;11.40;5.68;;;16.60;99.90;;;;;;5055007;28;20025;-68
2023/07/20 02:41:56;;;;;;;7.80;4.82;;;16.60;99.90;;;;;;5053594;28;20036;-68
2023/07/20 02:44:22;;;;;;;8.55;5.65;;;16.50;99.90;;;;;;5055162;28;20021;-68
2023/07/20 02:46:49;;;;;;;11.70;7.40;;;16.50;99.90;;;;;;5054887;28;20096;-68
2023/07/20 02:49:15;;;;;;;14.60;8.10;;;16.40;99.90;;;;;;5055378;28;20469;-68
2023/07/20 02:51:41;;;;;;;10.95;7.93;;;16.40;99.90;;;;;;5054685;28;20033;-68
2023/07/20 02:54:07;;;;;;;8.75;5.80;;;16.40;99.90;;;;;;5054921;28;20028;-68
2023/07/20 02:56:33;;;;;;;8.93;5.63;;;16.50;99.90;;;;;;5054830;28;20025;-68
2023/07/20 02:58:58;;;;;;;8.27;5.75;;;16.50;99.90;;;;;;5053354;28;20056;-68
2023/07/20 03:01:24;;;;;;;8.40;4.90;;;16.60;99.90;;;;;;5054479;28;20059;-68
2023/07/20 03:03:50;;;;;;;6.85;4.70;;;16.60;99.90;;;;;;5054758;28;20021;-68
2023/07/20 03:06:16;;;;;;;9.60;4.60;;;16.70;99.90;;;;;;5053222;28;20078;-68
2023/07/20 03:08:47;;;;;;;7.65;4.13;;;16.70;99.90;;;;;;5054421;28;20025;-68
2023/07/20 03:11:16;;;;;;;5.40;3.60;;;16.70;99.90;;;;;;5054343;28;20022;-68
2023/07/20 03:13:42;;;;;;;5.68;4.03;;;16.80;99.90;;;;;;5054115;28;20029;-68
2023/07/20 03:16:11;;;;;;;5.50;4.32;;;16.80;99.90;;;;;;5054081;28;20382;-68
2023/07/20 03:18:38;;;;;;;4.88;3.80;;;16.90;99.90;;;;;;5054265;28;20018;-68
2023/07/20 03:21:05;;;;;;;5.80;3.90;;;16.90;99.90;;;;;;5053671;28;20052;-68
2023/07/20 03:23:31;;;;;;;5.90;4.05;;;16.90;99.90;;;;;;5053994;28;20017;-68
2023/07/20 03:25:57;;;;;;;6.82;3.88;;;16.90;99.90;;;;;;5053965;28;20033;-68
2023/07/20 03:28:22;;;;;;;6.70;4.15;;;16.90;99.90;;;;;;5053991;28;20079;-68
2023/07/20 03:30:54;;;;;;;6.55;3.78;;;17.00;99.90;;;;;;5054080;28;20044;-68
2023/07/20 03:33:21;;;;;;;6.28;4.15;;;16.90;99.90;;;;;;5052923;28;20426;-68
2023/07/20 03:35:47;;;;;;;6.07;4.00;;;17.00;99.90;;;;;;5054109;28;20056;-68
2023/07/20 03:38:12;;;;;;;6.50;3.58;;;17.00;99.90;;;;;;5053742;28;20075;-68
2023/07/20 03:40:38;;;;;;;6.38;4.18;;;17.00;99.90;;;;;;5053785;28;20048;-68
2023/07/20 03:43:04;;;;;;;5.50;3.78;;;17.00;99.90;;;;;;5052502;28;20025;-68
2023/07/20 03:45:29;;;;;;;6.40;3.92;;;17.00;99.90;;;;;;5053869;28;20087;-68
2023/07/20 03:47:56;;;;;;;5.88;3.90;;;17.00;99.90;;;;;;5053696;28;20114;-68
2023/07/20 03:50:22;;;;;;;6.28;4.18;;;17.00;99.90;;;;;;5053502;28;20043;-68
2023/07/20 03:52:47;;;;;;;4.97;3.90;;;17.00;99.90;;;;;;5052984;28;20128;-68
2023/07/20 03:55:13;;;;;;;6.97;4.20;;;17.00;99.90;;;;;;5034778;28;20036;-68
2023/07/20 03:57:39;;;;;;;5.68;4.05;;;17.00;99.90;;;;;;5033471;28;20489;-67
2023/07/20 04:00:07;;;;;;;7.38;4.07;;;17.00;99.90;;;;;;5052664;28;20037;-67
2023/07/20 04:02:33;;;;;;;6.40;4.10;;;17.00;99.90;;;;;;5053362;28;20025;-67
2023/07/20 04:04:59;;;;;;;8.57;4.38;;;16.90;99.90;;;;;;5053432;28;20388;-67
2023/07/20 04:07:24;;;;;;;5.15;3.80;;;16.90;99.90;;;;;;5053504;28;20029;-67
2023/07/20 04:09:50;;;;;;;6.03;4.20;;;16.90;99.90;;;;;;5053749;28;20036;-67
2023/07/20 04:12:16;;;;;;;7.20;4.43;;;16.80;99.90;;;;;;5053429;28;20040;-67
2023/07/20 04:14:42;;;;;;;7.05;4.30;;;16.70;99.90;;;;;;5050891;28;20029;-69
2023/07/20 04:17:07;;;;;;;6.57;4.53;;;16.70;99.90;;;;;;5051039;28;20116;-69
2023/07/20 04:19:33;;;;;;;5.95;3.92;;;16.70;99.90;;;;;;5050027;28;20363;-67
2023/07/20 04:21:59;;;;;;;7.30;4.60;;;16.60;99.90;;;;;;5049905;28;20025;-67
2023/07/20 04:24:24;;;;;;;8.80;5.20;;;16.60;99.90;;;;;;5051340;28;20486;-67
2023/07/20 04:26:50;;;;;;;7.32;5.03;;;16.60;99.90;;;;;;5051830;28;20048;-67
2023/07/20 04:29:16;;;;;;;7.25;4.72;;;16.50;99.90;;;;;;5050873;28;20033;-67
2023/07/20 04:31:41;;;;;;;8.18;5.10;;;16.50;99.90;;;;;;5053027;28;20043;-67
2023/07/20 04:34:07;;;;;;;6.72;4.45;;;16.50;99.90;;;;;;5056509;28;20033;-67
2023/07/20 04:36:32;;;;;;;7.07;4.53;;;16.50;99.90;;;;;;5057311;28;20036;-67
2023/07/20 04:38:58;;;;;;;6.60;4.38;;;16.60;99.90;;;;;;5057233;28;20123;-67
2023/07/20 04:41:25;;;;;;;6.68;4.95;;;16.60;99.90;;;;;;5057678;28;20369;-67
2023/07/20 04:43:50;;;;;;;7.20;4.72;;;16.60;99.90;;;;;;5057345;28;20028;-67
2023/07/20 04:46:18;;;;;;;6.75;4.97;;;16.60;99.90;;;;;;5057131;28;20025;-67
2023/07/20 04:48:43;;;;;;;6.15;3.90;;;16.70;99.90;;;;;;5056963;28;20032;-67
2023/07/20 04:51:10;;;;;;;9.73;4.90;;;16.70;99.90;;;;;;5057287;28;20385;-67
2023/07/20 04:53:35;;;;;;;7.47;4.88;;;16.70;99.90;;;;;;5055726;28;20508;-67
2023/07/20 04:56:01;;;;;;;7.05;4.80;;;16.70;99.90;;;;;;5057178;28;20033;-67
2023/07/20 04:58:27;;;;;;;5.90;4.35;;;16.70;99.90;;;;;;5057053;28;20036;-67
2023/07/20 05:00:53;;;;;;;7.38;4.45;;;16.70;99.90;;;;;;5055547;28;20028;-67
2023/07/20 05:03:18;;;;;;;7.82;4.68;;;16.70;99.90;;;;;;5056806;28;20486;-67
2023/07/20 05:05:44;;;;;;;8.52;5.78;;;16.70;99.90;;;;;;5057021;28;20033;-67
2023/07/20 05:08:10;;;;;;;7.75;5.55;;;16.80;99.90;;;;;;5057281;28;20071;-67
2023/07/20 05:10:36;;;;;;;9.05;5.78;;;16.80;99.90;;;;;;5056855;28;20522;-67
2023/07/20 05:13:01;;;;;;;6.70;4.78;;;16.80;99.90;;;;;;5056524;28;20039;-67
2023/07/20 05:15:27;;;;;;;6.43;4.65;;;16.80;99.90;;;;;;5055184;28;20024;-68
2023/07/20 05:17:53;;;;;;;7.22;4.53;;;16.80;99.90;;;;;;5056655;28;20370;-67
2023/07/20 05:20:20;;;;;;;6.22;4.32;;;16.80;99.90;;;;;;5056779;28;20496;-67
2023/07/20 05:22:45;;;;;;;7.95;4.82;;;16.90;99.90;;;;;;5056341;28;20025;-67
2023/07/20 05:25:11;;;;;;;7.72;4.70;;;16.90;99.90;;;;;;5056867;28;20382;-67
2023/07/20 05:27:38;;;;;;;7.25;4.07;;;16.90;99.90;;;;;;5056246;28;20032;-67
2023/07/20 05:30:04;;;;;;;5.95;4.32;;;16.90;99.90;;;;;;5056743;28;20025;-67
2023/07/20 05:32:30;;;;;;;6.55;4.30;;;17.00;99.90;;;;;;5056176;28;20485;-67
2023/07/20 05:34:56;;;;;;;6.05;4.07;;;17.10;99.90;;;;;;5045979;28;20584;-67
2023/07/20 05:37:22;;;;;;;6.65;4.22;;;17.10;99.90;;;;;;5056136;28;20115;-67
2023/07/20 05:39:47;;;;;;;6.53;4.65;;;17.10;99.90;;;;;;5049014;28;20018;-67
2023/07/20 05:42:13;;;;;;;6.70;4.70;;;17.20;99.90;;;;;;5045524;28;20103;-67
2023/07/20 05:44:43;;;;;;;5.80;3.95;;;17.20;99.90;;;;;;5048068;28;20501;-67
2023/07/20 05:47:09;;;;;;;6.68;4.40;;;17.20;99.90;;;;;;5040792;28;20041;-67
2023/07/20 05:49:35;;;;;;;5.95;3.97;;;17.20;99.90;;;;;;5035905;28;20038;-67
2023/07/20 05:52:01;;;;;;;5.72;3.80;;;17.20;99.90;;;;;;5051956;28;20075;-67
2023/07/20 05:54:27;;;;;;;6.75;4.30;;;17.20;99.90;;;;;;5055710;28;20040;-67
2023/07/20 05:56:53;;;;;;;5.57;3.92;;;17.20;99.90;;;;;;5046856;28;20033;-67
2023/07/20 05:59:19;;;;;;;5.68;4.13;;;17.30;99.90;;;;;;5035137;28;20026;-67
2023/07/20 06:01:45;;;;;;;6.10;4.03;;;17.30;99.90;;;;;;5037464;28;20071;-67
2023/07/20 06:04:11;;;;;;;7.10;4.15;;;17.30;99.90;;;;;;5055575;28;20025;-67
2023/07/20 06:06:36;;;;;;;6.28;4.57;;;17.40;99.90;;;;;;5055578;28;20037;-67
2023/07/20 06:09:09;;;;;;;6.32;4.20;;;17.40;99.90;;;;;;5055031;28;20029;-67
2023/07/20 06:11:36;;;;;;;5.85;4.03;;;17.40;99.90;;;;;;5055501;28;20033;-67
2023/07/20 06:14:01;;;;;;;6.05;4.43;;;17.40;99.90;;;;;;5037932;28;20025;-68
2023/07/20 06:16:27;;;;;;;7.93;5.35;;;17.50;99.90;;;;;;5035344;28;20052;-68
2023/07/20 06:18:53;;;;;;;10.38;5.10;;;17.50;99.90;;;;;;5034456;28;20067;-67
2023/07/20 06:21:19;;;;;;;7.13;4.90;;;17.40;99.90;;;;;;5034940;28;20022;-67
2023/07/20 06:23:46;;;;;;;6.65;4.53;;;17.40;99.90;;;;;;5035440;28;20045;-68
2023/07/20 06:26:11;;;;;;;8.27;5.40;;;17.40;99.90;;;;;;5035220;28;20018;-67
2023/07/20 06:28:37;;;;;;;7.30;5.00;;;17.40;99.90;;;;;;5052688;28;20036;-67
2023/07/20 06:31:03;;;;;;;7.07;4.80;;;17.40;99.90;;;;;;5049924;28;20032;-67
2023/07/20 06:33:29;;;;;;;7.63;4.45;;;17.40;99.90;;;;;;5055642;28;20029;-67
2023/07/20 06:35:56;;;;;;;6.85;5.00;;;17.40;99.90;;;;;;5054263;28;20029;-67
2023/07/20 06:38:23;;;;;;;6.57;4.45;;;17.40;99.90;;;;;;5054984;28;20049;-67
2023/07/20 06:40:49;;;;;;;6.78;4.75;;;17.50;99.90;;;;;;5055326;28;20468;-67
2023/07/20 06:43:16;;;;;;;6.35;4.63;;;17.50;99.90;;;;;;5055099;28;20025;-67
2023/07/20 06:45:42;;;;;;;6.75;4.60;;;17.50;99.90;;;;;;5053940;28;20115;-67
2023/07/20 06:48:08;;;;;;;6.22;4.35;;;17.60;99.90;;;;;;5054813;28;20052;-67
2023/07/20 06:50:33;;;;;;;6.45;4.72;;;17.60;99.90;;;;;;5054722;28;20025;-67
2023/07/20 06:52:59;;;;;;;6.85;4.97;;;17.60;99.90;;;;;;5054803;28;20033;-67
2023/07/20 06:55:26;;;;;;;8.35;5.28;;;17.70;99.90;;;;;;5054385;28;20056;-67
2023/07/20 06:57:52;;;;;;;6.55;4.03;;;17.70;99.90;;;;;;5052464;28;20107;-67
2023/07/20 07:00:18;;;;;;;6.47;4.65;;;17.70;99.90;;;;;;5054635;28;20453;-67
2023/07/20 07:02:43;;;;;;;7.55;5.18;;;17.70;99.90;;;;;;5054596;28;20061;-67
2023/07/20 07:05:09;;;;;;;8.70;5.35;;;17.70;99.90;;;;;;5054745;28;20044;-67
2023/07/20 07:07:35;;;;;;;8.25;6.00;;;17.80;99.90;;;;;;5054480;28;20044;-67
2023/07/20 07:10:04;;;;;;;7.82;5.45;;;17.80;99.90;;;;;;5054648;28;20029;-67
2023/07/20 07:12:30;;;;;;;6.57;4.78;;;17.80;99.90;;;;;;5054806;28;20112;-67
2023/07/20 07:14:55;;;;;;;9.15;5.70;;;17.80;99.90;;;;;;5054791;28;20067;-67
2023/07/20 07:17:21;;;;;;;9.35;6.15;;;17.80;99.90;;;;;;5054112;28;20140;-67
2023/07/20 07:19:46;;;;;;;8.88;5.57;;;17.80;99.90;;;;;;5054205;28;20100;-67
2023/07/20 07:22:13;;;;;;;8.23;5.30;;;17.80;99.90;;;;;;5054104;28;20025;-67
2023/07/20 07:24:41;;;;;;;7.35;5.10;;;17.80;99.90;;;;;;5054299;28;20486;-67
2023/07/20 07:27:08;;;;;;;7.07;4.60;;;17.90;99.90;;;;;;5054068;28;20162;-67
2023/07/20 07:29:34;;;;;;;7.68;4.82;;;17.80;99.90;;;;;;5053989;28;20393;-67
2023/07/20 07:32:01;;;;;;;6.88;4.93;;;17.90;99.90;;;;;;5053960;28;20032;-67
2023/07/20 07:34:27;;;;;;;6.47;4.55;;;17.90;99.90;;;;;;5053932;28;20440;-67
2023/07/20 07:36:53;;;;;;;6.88;3.83;;;17.90;99.90;;;;;;5052622;28;20172;-67
2023/07/20 07:39:19;;;;;;;5.13;3.08;;;17.90;99.90;;;;;;5053935;28;20032;-68
2023/07/20 07:41:44;;;;;;;4.82;2.97;;;17.90;99.90;;;;;;5053886;28;20028;-68
2023/07/20 07:44:10;;;;;;;8.20;3.00;;;17.90;99.90;;;;;;5054344;28;20021;-67
2023/07/20 07:46:36;;;;;;;5.00;3.08;;;17.90;99.90;;;;;;5053767;28;20492;-68
2023/07/20 07:49:01;;;;;;;3.78;2.70;;;17.90;99.90;;;;;;5053680;28;20076;-68
2023/07/20 07:51:27;;;;;;;4.75;3.10;;;17.80;99.90;;;;;;5053851;28;20385;-68
2023/07/20 07:53:53;;;;;;;3.90;2.80;;;17.80;99.90;;;;;;5053954;28;20086;-68
2023/07/20 07:56:22;;;;;;;6.43;3.08;;;17.80;99.90;;;;;;5053540;28;20067;-68
2023/07/20 07:58:49;;;;;;;7.10;2.97;;;17.80;99.90;;;;;;5053584;28;20017;-68
2023/07/20 08:01:15;;;;;;;5.60;3.03;;;17.80;99.90;;;;;;5053529;28;20025;-68
2023/07/20 08:03:40;;;;;;;4.30;2.75;;;17.80;99.90;;;;;;5053371;28;20040;-68
2023/07/20 08:06:06;;;;;;;4.07;2.80;;;17.90;99.90;;;;;;5053528;28;20029;-68
2023/07/20 08:08:32;;;;;;;4.32;3.17;;;17.90;99.90;;;;;;5053406;28;20448;-68
2023/07/20 08:10:59;;;;;;;7.50;3.78;;;18.00;99.90;;;;;;5053704;28;20104;-68
2023/07/20 08:13:24;;;;;;;6.22;3.40;;;18.10;99.90;;;;;;5053294;28;20037;-68
2023/07/20 08:15:54;;;;;;;4.85;3.05;;;18.10;99.90;;;;;;5053116;28;20044;-68
2023/07/20 08:18:21;;;;;;;6.85;2.60;;;18.20;99.90;;;;;;5053489;28;20107;-68
2023/07/20 08:20:47;;;;;;;4.85;2.30;;;18.30;99.90;;;;;;5053484;28;20501;-68
2023/07/20 08:23:13;;;;;;;4.55;2.28;;;18.40;99.90;;;;;;5052964;28;20033;-68
2023/07/20 08:25:43;;;;;;;5.63;2.55;;;18.40;99.90;;;;;;5053479;28;20083;-68
2023/07/20 08:28:13;;;;;;;5.05;2.38;;;18.50;99.90;;;;;;5052129;28;20029;-68
2023/07/20 08:30:44;;;;;;;4.00;2.10;;;18.60;99.90;;;;;;5052811;28;20406;-68
2023/07/20 08:33:11;;;;;;;7.43;3.20;;;18.70;99.90;;;;;;5053222;28;20039;-68
2023/07/20 08:35:37;;;;;;;4.78;2.28;;;18.70;99.90;;;;;;5053192;28;20072;-68
2023/07/20 08:38:04;;;;;;;4.07;2.47;;;18.70;99.90;;;;;;5046550;28;20056;-68
2023/07/20 08:40:33;;;;;;;5.97;2.17;;;18.70;99.90;;;;;;5033941;28;20032;-68
2023/07/20 08:43:02;;;;;;;3.28;2.28;;;18.70;99.90;;;;;;5033115;28;20018;-68
2023/07/20 08:45:31;;;;;;;3.85;2.08;;;18.70;99.90;;;;;;5031921;28;20048;-68
2023/07/20 08:47:58;;;;;;;7.18;2.40;;;18.70;99.90;;;;;;5033695;28;20033;-68
2023/07/20 08:50:26;;;;;;;6.72;2.30;;;18.70;99.90;;;;;;5033616;28;20109;-68
2023/07/20 08:52:53;;;;;;;4.68;2.15;;;18.70;99.90;;;;;;5033026;28;20083;-68
2023/07/20 08:55:22;;;;;;;5.63;2.47;;;18.70;99.90;;;;;;5033590;28;20045;-68
2023/07/20 08:57:51;;;;;;;4.97;2.50;;;18.70;99.90;;;;;;5033020;28;20025;-68
2023/07/20 09:00:19;;;;;;;4.70;2.40;;;18.70;99.90;;;;;;5033458;28;20022;-69
2023/07/20 09:02:46;;;;;;;5.63;2.35;;;18.70;99.90;;;;;;5033033;28;20367;-67
2023/07/20 09:05:14;;;;;;;3.95;1.92;;;18.70;99.90;;;;;;5032982;28;20052;-68
2023/07/20 09:07:40;;;;;;;5.88;2.15;;;18.70;99.90;;;;;;5032822;28;20087;-68
2023/07/20 09:10:10;;;;;;;6.15;2.45;;;18.70;99.90;;;;;;5032981;28;20108;-68
2023/07/20 09:12:37;;;;;;;3.80;2.15;;;18.70;99.90;;;;;;5033194;28;20033;-67
2023/07/20 09:15:04;;;;;;;4.78;1.90;;;18.70;99.90;;;;;;5033247;28;20039;-67
2023/07/20 09:17:30;;;;;;;4.43;2.15;;;18.70;99.90;;;;;;5032571;28;20124;-67
2023/07/20 09:19:56;;;;;;;4.55;1.98;;;18.80;99.90;;;;;;5032569;28;20116;-67
2023/07/20 09:22:21;;;;;;;4.20;2.20;;;19.00;99.90;;;;;;5036713;28;20117;-67
2023/07/20 09:24:47;;;;;;;3.55;2.10;;;19.20;99.90;;;;;;5036445;28;20527;-67
2023/07/20 09:27:13;;;;;;;4.07;1.85;;;19.50;99.90;;;;;;5036504;28;20091;-67
2023/07/20 09:29:49;;;;;;;6.78;2.10;;;19.70;99.90;;;;;;5036401;28;20037;-67
2023/07/20 09:32:22;;;;;;;4.22;2.33;;;19.90;99.90;;;;;;5036303;28;20367;-67
2023/07/20 09:34:50;;;;;;;3.65;2.08;;;20.10;99.90;;;;;;5036357;28;20029;-67
2023/07/20 09:37:21;;;;;;;9.18;5.20;;;20.20;99.90;;;;;;5036229;28;20382;-67
2023/07/20 09:39:47;;;;;;;;;;;20.40;99.90;;;;;;5036678;28;20021;-67
2023/07/20 09:42:13;;;;;;;5.40;2.90;;;20.50;99.90;;;;;;5036379;28;19909;-67
2023/07/20 09:44:44;;;;;;;4.60;2.40;;;20.60;99.90;;;;;;5036415;28;20025;-67
2023/07/20 09:47:09;;;;;;;;;;;20.80;99.90;;;;;;5036783;28;20034;-67
2023/07/20 09:49:41;;;;;;;4.32;2.55;;;20.90;99.90;;;;;;5035929;28;20385;-67
2023/07/20 09:52:09;;;;;;;6.18;3.20;;;21.10;99.90;;;;;;5036229;28;20107;-67
2023/07/20 09:54:38;;;;;;;4.22;2.75;;;21.10;99.90;;;;;;5035998;28;20021;-67
2023/07/20 09:57:06;;;;;;;4.93;2.95;;;21.20;99.90;;;;;;5035843;28;20025;-67
2023/07/20 09:59:32;;;;;;;7.43;2.72;;;21.30;99.90;;;;;;5036449;28;20478;-67
2023/07/20 10:02:01;;;;;;;7.25;2.47;;;21.50;99.90;;;;;;5035671;28;20035;-67
2023/07/20 10:04:29;;;;;;;3.53;2.25;;;21.50;99.90;;;;;;5035799;28;20545;-67
2023/07/20 10:06:58;;;;;;;4.40;2.80;;;21.60;99.90;;;;;;5035721;28;20080;-68
2023/07/20 10:09:25;;;;;;;5.30;2.78;;;21.70;99.90;;;;;;5035727;28;20029;-68
2023/07/20 10:11:53;;;;;;;6.50;2.40;;;21.70;99.90;;;;;;5035593;28;20113;-68
2023/07/20 10:14:20;;;;;;;4.38;2.30;;;21.70;99.90;;;;;;5035638;28;20061;-69
2023/07/20 10:16:58;;;;;;;6.68;2.65;;;21.80;99.90;;;;;;5035352;28;20057;-68
2023/07/20 10:19:46;;;;;;;5.38;2.60;;;22.10;99.90;;;;;;5054826;28;20086;-68
2023/07/20 10:22:25;;;;;;;4.45;2.50;;;22.10;99.90;;;;;;5055119;28;20500;-68
2023/07/20 10:24:53;;;;;;;4.38;2.10;;;22.20;99.90;;;;;;5054698;28;20032;-68
2023/07/20 10:27:20;;;;;;;4.35;2.63;;;22.10;99.90;;;;;;5043019;28;20394;-68
2023/07/20 10:29:47;;;;;;;8.10;2.20;;;22.10;99.90;;;;;;5037544;28;20397;-68
2023/07/20 10:32:13;;;;;;;4.32;2.45;;;22.00;99.90;;;;;;5036918;28;20044;-68
2023/07/20 10:34:39;;;;;;;3.08;1.85;;;21.90;99.90;;;;;;5033923;28;20040;-68
2023/07/20 10:37:05;;;;;;;3.45;1.75;;;21.80;99.90;;;;;;5034286;28;20029;-68
2023/07/20 10:39:32;;;;;;;3.90;1.83;;;21.70;99.90;;;;;;5034846;28;20060;-68
2023/07/20 10:42:07;;;;;;;4.13;1.90;;;21.50;99.90;;;;;;5034631;28;20044;-68
2023/07/20 10:44:33;;;;;;;3.55;1.83;;;21.40;99.90;;;;;;5034272;28;20026;-68
2023/07/20 10:47:08;;;;;;;5.32;1.95;;;21.40;99.90;;;;;;5034324;28;20034;-68
2023/07/20 10:49:35;;;;;;;5.28;1.92;;;21.30;99.90;;;;;;5034535;28;20120;-68
2023/07/20 10:52:04;;;;;;;5.00;1.70;;;21.30;99.90;;;;;;5034651;28;20109;-68
2023/07/20 10:54:30;;;;;;;3.75;1.52;;;21.40;99.90;;;;;;5034978;28;20025;-68
2023/07/20 10:56:58;;;;;;;2.90;1.65;;;21.40;99.90;;;;;;5035052;28;20026;-68
2023/07/20 10:59:23;;;;;;;4.28;1.73;;;21.50;99.90;;;;;;5035029;28;20386;-69
2023/07/20 11:01:50;;;;;;;3.50;1.90;;;21.70;99.90;;;;;;5034647;28;20021;-68
2023/07/20 11:04:19;;;;;;;2.67;1.70;;;21.90;99.90;;;;;;5034664;28;20459;-68
2023/07/20 11:06:46;;;;;;;4.55;1.83;;;22.10;99.90;;;;;;5034646;28;20033;-69
2023/07/20 11:09:16;;;;;;;4.35;2.30;;;22.10;99.90;;;;;;5034521;28;20026;-69
2023/07/20 11:11:42;;;;;;;4.28;1.88;;;22.10;99.90;;;;;;5034977;28;20052;-69
2023/07/20 11:14:10;;;;;;;3.72;1.98;;;22.30;99.90;;;;;;5034469;28;20449;-69
2023/07/20 11:16:40;;;;;;;7.25;2.33;;;22.40;99.90;;;;;;5034175;28;20378;-69
2023/07/20 11:19:15;;;;;;;4.70;1.87;;;22.40;99.90;;;;;;5034912;28;20021;-69
2023/07/20 11:21:42;;;;;;;3.55;1.73;;;22.50;99.90;;;;;;5034292;28;20256;-69
2023/07/20 11:24:09;;;;;;;5.45;1.77;;;22.70;99.90;;;;;;5034263;28;20045;-69
2023/07/20 11:27:04;;;;;;;3.50;1.80;;;23.00;99.90;;;;;;5034289;28;20026;-68
2023/07/20 11:29:29;;;;;;;4.22;2.10;;;23.30;99.90;;;;;;5033832;28;20048;-69
2023/07/20 11:31:57;;;;;;;3.58;2.08;;;23.50;99.90;;;;;;5033965;28;20022;-68
2023/07/20 11:34:22;;;;;;;4.05;1.90;;;23.60;99.90;;;;;;5034057;28;20068;-69
2023/07/20 11:36:50;;;;;;;3.03;1.73;;;23.80;99.90;;;;;;5033985;28;20021;-69
2023/07/20 11:39:19;;;;;;;3.60;2.10;;;23.80;99.90;;;;;;5034011;28;20025;-69
2023/07/20 11:41:54;;;;;;;4.05;1.80;;;23.80;99.90;;;;;;5034070;28;20025;-69
2023/07/20 11:44:28;;;;;;;3.15;1.80;;;23.90;99.90;;;;;;5033733;28;20529;-69
2023/07/20 11:47:11;;;;;;;3.08;1.80;;;24.00;99.90;;;;;;5033968;28;20433;-69
2023/07/20 11:49:39;;;;;;;5.10;2.05;;;24.00;98.40;;;;;;5032833;28;20363;-68
2023/07/20 11:52:13;;;;;;;6.85;1.95;;;23.90;98.30;;;;;;5033683;28;20041;-69
2023/07/20 11:54:40;;;;;;;3.50;1.70;;;23.70;99.00;;;;;;5034006;28;20025;-69
2023/07/20 11:57:06;;;;;;;3.55;1.75;;;23.70;98.30;;;;;;5032234;28;20501;-68
2023/07/20 11:59:32;;;;;;;3.63;1.92;;;23.50;98.60;;;;;;5034400;28;20038;-69
2023/07/20 12:02:05;;;;;;;4.57;2.20;;;23.30;98.00;;;;;;5033523;28;20021;-68
2023/07/20 12:04:32;;;;;;;4.65;2.10;;;23.20;98.80;;;;;;5033734;28;20032;-69
2023/07/20 12:06:58;;;;;;;4.88;1.88;;;23.30;99.30;;;;;;5033511;28;20028;-69
2023/07/20 12:09:24;;;;;;;4.28;1.80;;;23.50;98.70;;;;;;5033414;28;20113;-69
2023/07/20 12:11:50;;;;;;;5.28;1.90;;;23.70;99.00;;;;;;5033284;28;20454;-69
2023/07/20 12:14:17;;;;;;;6.05;2.10;;;23.80;97.60;;;;;;5033400;28;20159;-69
2023/07/20 12:16:42;;;;;;;3.60;1.85;;;23.80;96.50;;;;;;5033146;28;20029;-69
2023/07/20 12:19:10;;;;;;;5.00;1.95;;;23.60;96.40;;;;;;5042883;28;20028;-69
2023/07/20 12:21:39;;;;;;;4.03;1.77;;;23.50;97.70;;;;;;5053199;28;20111;-69
2023/07/20 12:24:06;;;;;;;4.00;1.92;;;23.60;97.90;;;;;;5053224;28;20056;-69
2023/07/20 12:26:32;;;;;;;4.10;1.92;;;23.80;97.80;;;;;;5052913;28;20025;-69
2023/07/20 12:28:59;;;;;;;4.55;1.75;;;24.00;96.90;;;;;;5053319;28;20025;-69
2023/07/20 12:31:25;;;;;;;4.45;1.80;;;24.30;95.30;;;;;;5052995;28;20048;-69
2023/07/20 12:33:52;;;;;;;5.00;1.90;;;24.40;96.80;;;;;;5052958;28;20037;-69
2023/07/20 12:36:18;;;;;;;4.90;1.95;;;24.50;95.90;;;;;;5052485;28;20083;-69
2023/07/20 12:38:44;;;;;;;3.80;1.48;;;24.60;96.30;;;;;;5050507;28;20025;-69
2023/07/20 12:41:14;;;;;;;3.22;1.90;;;24.40;95.00;;;;;;5053880;28;20033;-69
2023/07/20 12:43:44;;;;;;;3.60;1.95;;;24.30;96.00;;;;;;5054345;28;20021;-69
2023/07/20 12:46:11;;;;;;;5.95;2.33;;;24.30;95.30;;;;;;5054439;28;20033;-69
2023/07/20 12:48:38;;;;;;;3.83;1.90;;;24.20;95.70;;;;;;5054513;28;20022;-68